createdAt,value
2018-07-02T00:00:41.663Z,1.10
2018-07-02T00:03:12.034Z,1.50
2018-07-02T00:05:52.583Z,1.20
2018-07-02T00:08:27.056Z,1.43
2018-07-02T00:10:56.414Z,1.53
2018-07-02T00:13:26.167Z,1.40
2018-07-02T00:15:55.378Z,1.43
2018-07-02T00:18:24.822Z,1.40
2018-07-02T00:20:53.707Z,1.60
2018-07-02T00:23:25.116Z,1.50
2018-07-02T00:25:54.729Z,1.50
2018-07-02T00:28:24.432Z,1.50
2018-07-02T00:30:53.590Z,1.30
2018-07-02T00:33:21.912Z,1.40
2018-07-02T00:35:50.158Z,1.40
2018-07-02T00:38:19.596Z,1.50
2018-07-02T00:40:55.335Z,1.30
2018-07-02T00:43:24.385Z,1.40
2018-07-02T00:45:53.358Z,1.60
2018-07-02T00:48:22.576Z,1.50
2018-07-02T00:50:51.018Z,1.47
2018-07-02T00:53:20.929Z,1.30
2018-07-02T00:55:51.275Z,1.33
2018-07-02T00:58:22.478Z,1.60
2018-07-02T01:00:51.421Z,1.47
2018-07-02T01:03:20.250Z,1.30
2018-07-02T01:05:48.527Z,1.40
2018-07-02T01:08:16.793Z,1.50
2018-07-02T01:10:45.099Z,1.50
2018-07-02T01:13:13.382Z,1.60
2018-07-02T01:15:41.759Z,1.43
2018-07-02T01:18:10.027Z,1.60
2018-07-02T01:20:38.332Z,1.50
2018-07-02T01:23:07.597Z,1.23
2018-07-02T01:25:36.893Z,1.40
2018-07-02T01:28:06.574Z,1.30
2018-07-02T01:30:34.878Z,1.20
2018-07-02T01:33:03.602Z,1.60
2018-07-02T01:35:31.974Z,1.20
2018-07-02T01:38:02.550Z,1.50
2018-07-02T01:40:39.691Z,1.30
2018-07-02T01:43:11.018Z,1.60
2018-07-02T01:45:40.822Z,1.50
2018-07-02T01:48:10.373Z,1.30
2018-07-02T01:50:46.472Z,1.20
2018-07-02T01:53:15.934Z,1.63
2018-07-02T01:55:45.512Z,1.47
2018-07-02T01:58:14.869Z,1.50
2018-07-02T02:00:43.368Z,1.40
2018-07-02T02:03:13.516Z,1.50
2018-07-02T02:05:41.850Z,1.50
2018-07-02T02:08:17.651Z,1.43
2018-07-02T02:10:47.712Z,1.60
2018-07-02T02:13:17.097Z,1.50
2018-07-02T02:15:45.659Z,1.63
2018-07-02T02:18:15.194Z,1.47
2018-07-02T02:20:45.877Z,1.53
2018-07-02T02:23:16.387Z,1.50
2018-07-02T02:25:46.236Z,1.60
2018-07-02T02:30:50.560Z,1.40
2018-07-02T02:33:21.701Z,1.70
2018-07-02T02:35:50.397Z,1.37
2018-07-02T02:38:19.797Z,1.50
2018-07-02T02:40:48.253Z,1.50
2018-07-02T02:43:16.562Z,1.50
2018-07-02T02:45:44.830Z,1.60
2018-07-02T02:48:13.105Z,1.73
2018-07-02T02:50:41.366Z,1.70
2018-07-02T02:53:12.315Z,1.30
2018-07-02T02:55:41.764Z,1.60
2018-07-02T02:58:12.216Z,1.50
2018-07-02T03:00:40.510Z,1.80
2018-07-02T03:03:09.262Z,1.60
2018-07-02T03:05:39.606Z,1.50
2018-07-02T03:08:09.491Z,1.60
2018-07-02T03:10:40.639Z,1.50
2018-07-02T03:13:09.610Z,1.50
2018-07-02T03:15:39.159Z,1.50
2018-07-02T03:18:07.516Z,1.60
2018-07-02T03:20:35.521Z,1.50
2018-07-02T03:23:05.926Z,1.60
2018-07-02T03:25:34.182Z,2.00
2018-07-02T03:28:04.500Z,1.70
2018-07-02T03:30:32.819Z,1.70
2018-07-02T03:33:02.365Z,1.70
2018-07-02T03:35:31.746Z,1.70
2018-07-02T03:38:00.207Z,1.70
2018-07-02T03:40:28.519Z,1.70
2018-07-02T03:42:56.827Z,2.00
2018-07-02T03:45:25.950Z,2.20
2018-07-02T03:47:54.253Z,2.20
2018-07-02T03:50:22.582Z,2.20
2018-07-02T03:52:50.864Z,1.87
2018-07-02T03:55:19.273Z,2.00
2018-07-02T03:57:48.206Z,1.93
2018-07-02T04:00:20.389Z,1.80
2018-07-02T04:02:51.142Z,1.83
2018-07-02T04:05:22.481Z,2.30
2018-07-02T04:07:51.358Z,1.70
2018-07-02T04:10:21.076Z,1.90
2018-07-02T04:12:57.462Z,1.73
2018-07-02T04:15:30.506Z,1.70
2018-07-02T04:18:00.663Z,2.00
2018-07-02T04:20:35.294Z,2.00
2018-07-02T04:23:04.975Z,1.87
2018-07-02T04:25:35.058Z,1.67
2018-07-02T04:28:04.787Z,2.03
2018-07-02T04:30:34.206Z,2.00
2018-07-02T04:33:03.766Z,1.90
2018-07-02T04:35:32.449Z,1.90
2018-07-02T04:38:01.518Z,2.00
2018-07-02T04:40:30.371Z,1.80
2018-07-02T04:43:04.296Z,1.90
2018-07-02T04:45:33.427Z,2.00
2018-07-02T04:48:02.266Z,1.80
2018-07-02T04:50:37.622Z,1.63
2018-07-02T04:53:11.606Z,1.60
2018-07-02T04:55:44.695Z,1.53
2018-07-02T04:58:13.439Z,1.70
2018-07-02T05:00:43.986Z,1.80
2018-07-02T05:03:13.287Z,1.70
2018-07-02T05:05:42.102Z,1.80
2018-07-02T05:08:11.482Z,1.80
2018-07-02T05:10:39.905Z,1.50
2018-07-02T05:13:12.120Z,1.70
2018-07-02T05:15:41.319Z,1.80
2018-07-02T05:18:10.170Z,3.10
2018-07-02T05:20:38.746Z,1.50
2018-07-02T05:23:07.614Z,1.80
2018-07-02T05:25:36.078Z,1.60
2018-07-02T05:28:05.287Z,1.50
2018-07-02T05:32:04.244Z,1.50
2018-07-02T05:34:33.292Z,2.27
2018-07-02T05:37:06.362Z,2.30
2018-07-02T05:39:35.882Z,1.63
2018-07-02T05:42:05.487Z,1.60
2018-07-02T05:44:33.978Z,1.80
2018-07-02T05:47:03.066Z,1.50
2018-07-02T05:49:31.954Z,1.47
2018-07-02T05:52:01.164Z,1.60
2018-07-02T05:54:30.570Z,1.57
2018-07-02T05:57:01.435Z,1.60
2018-07-02T05:59:31.082Z,1.50
2018-07-02T06:02:00.884Z,1.37
2018-07-02T06:04:29.978Z,1.40
2018-07-02T06:07:02.629Z,1.40
2018-07-02T06:09:43.776Z,1.57
2018-07-02T06:12:13.403Z,1.50
2018-07-02T06:14:43.958Z,1.50
2018-07-02T06:17:12.296Z,1.20
2018-07-02T06:19:42.192Z,1.40
2018-07-02T06:22:11.086Z,1.20
2018-07-02T06:24:42.651Z,1.10
2018-07-02T06:27:10.982Z,1.33
2018-07-02T06:29:39.271Z,1.60
2018-07-02T06:32:07.727Z,1.50
2018-07-02T06:34:36.507Z,1.10
2018-07-02T06:37:04.934Z,1.30
2018-07-02T06:39:33.229Z,1.47
2018-07-02T06:42:01.693Z,1.60
2018-07-02T06:44:30.472Z,1.53
2018-07-02T06:46:58.760Z,1.60
2018-07-02T06:49:27.310Z,1.70
2018-07-02T06:51:56.582Z,1.10
2018-07-02T06:54:25.059Z,1.27
2018-07-02T06:56:56.727Z,1.20
2018-07-02T06:59:25.074Z,1.37
2018-07-02T07:01:53.339Z,1.13
2018-07-02T07:04:21.600Z,1.30
2018-07-02T07:06:49.875Z,1.30
2018-07-02T07:09:18.123Z,1.40
2018-07-02T07:11:51.516Z,1.47
2018-07-02T07:14:43.373Z,1.20
2018-07-02T07:17:16.702Z,1.10
2018-07-02T07:19:45.972Z,1.40
2018-07-02T07:22:15.286Z,1.23
2018-07-02T07:30:47.867Z,1.20
2018-07-02T07:33:16.122Z,1.40
2018-07-02T07:35:44.439Z,1.27
2018-07-02T07:38:12.678Z,1.30
2018-07-02T07:40:40.964Z,1.20
2018-07-02T07:43:09.230Z,1.10
2018-07-02T07:45:37.478Z,1.00
2018-07-02T07:48:06.260Z,1.17
2018-07-02T07:50:34.630Z,1.10
2018-07-02T07:53:02.946Z,1.20
2018-07-02T07:55:31.219Z,1.07
2018-07-02T07:57:59.679Z,1.10
2018-07-02T08:00:29.378Z,1.20
2018-07-02T08:02:57.838Z,1.17
2018-07-02T08:05:26.090Z,1.07
2018-07-02T08:07:55.413Z,1.03
2018-07-02T08:10:24.187Z,1.37
2018-07-02T08:12:52.433Z,1.30
2018-07-02T08:15:20.675Z,1.40
2018-07-02T08:17:48.955Z,1.50
2018-07-02T08:20:17.207Z,1.30
2018-07-02T08:22:45.499Z,1.20
2018-07-02T08:25:13.767Z,1.20
2018-07-02T08:27:42.921Z,1.03
2018-07-02T08:30:11.189Z,0.93
2018-07-02T08:32:39.462Z,1.10
2018-07-02T08:35:07.921Z,1.07
2018-07-02T08:37:36.217Z,0.95
2018-07-02T08:40:16.969Z,1.20
2018-07-02T08:42:46.175Z,1.00
2018-07-02T08:45:17.789Z,1.32
2018-07-02T08:47:46.778Z,0.90
2018-07-02T08:50:15.460Z,1.45
2018-07-02T08:52:44.210Z,1.07
2018-07-02T08:55:13.845Z,1.15
2018-07-02T08:57:42.110Z,1.00
2018-07-02T09:00:10.395Z,0.98
2018-07-02T09:02:38.642Z,0.70
2018-07-02T09:05:07.406Z,1.02
2018-07-02T09:07:35.655Z,0.80
2018-07-02T09:10:05.195Z,1.17
2018-07-02T09:12:33.486Z,1.10
2018-07-02T09:15:01.500Z,1.30
2018-07-02T09:17:30.473Z,1.27
2018-07-02T09:19:58.751Z,0.95
2018-07-02T09:22:27.144Z,0.95
2018-07-02T09:24:56.111Z,0.98
2018-07-02T09:27:24.408Z,1.02
2018-07-02T09:29:53.508Z,1.40
2018-07-02T09:32:22.012Z,1.00
2018-07-02T09:34:50.254Z,1.05
2018-07-02T09:37:18.558Z,1.10
2018-07-02T09:39:46.839Z,1.27
2018-07-02T09:42:15.148Z,1.05
2018-07-02T09:44:43.141Z,1.07
2018-07-02T09:47:13.968Z,1.03
2018-07-02T09:49:43.087Z,0.90
2018-07-02T09:52:16.826Z,1.03
2018-07-02T09:54:46.178Z,0.90
2018-07-02T09:57:15.471Z,1.20
2018-07-02T09:59:45.016Z,1.23
2018-07-02T10:02:13.526Z,1.00
2018-07-02T10:04:41.790Z,1.40
2018-07-02T10:07:11.734Z,1.20
2018-07-02T10:09:40.027Z,0.90
2018-07-02T10:12:08.338Z,0.90
2018-07-02T10:14:36.631Z,1.07
2018-07-02T10:17:04.961Z,1.20
2018-07-02T10:19:33.366Z,1.00
2018-07-02T10:22:03.622Z,1.10
2018-07-02T10:24:32.060Z,1.00
2018-07-02T10:27:02.793Z,1.20
2018-07-02T10:29:31.173Z,1.00
2018-07-02T10:31:59.803Z,0.77
2018-07-02T10:34:29.797Z,1.33
2018-07-02T10:37:03.331Z,1.40
2018-07-02T10:39:34.816Z,1.00
2018-07-02T10:42:03.134Z,1.40
2018-07-02T10:44:31.596Z,1.00
2018-07-02T10:47:03.209Z,0.90
2018-07-02T10:49:49.202Z,1.07
2018-07-02T10:55:56.691Z,1.10
2018-07-02T10:58:26.013Z,1.17
2018-07-02T11:00:54.547Z,1.20
2018-07-02T11:03:22.830Z,1.00
2018-07-02T11:05:52.700Z,0.90
2018-07-02T11:08:21.577Z,1.20
2018-07-02T11:10:51.324Z,1.30
2018-07-02T11:13:21.466Z,1.27
2018-07-02T11:15:53.231Z,1.10
2018-07-02T11:18:21.809Z,0.97
2018-07-02T11:20:57.469Z,1.30
2018-07-02T11:23:25.812Z,1.10
2018-07-02T11:25:55.225Z,1.47
2018-07-02T11:28:24.249Z,1.27
2018-07-02T11:30:52.846Z,1.20
2018-07-02T11:33:23.416Z,1.30
2018-07-02T11:35:51.690Z,1.13
2018-07-02T11:38:25.914Z,1.17
2018-07-02T11:41:28.645Z,1.40
2018-07-02T11:46:48.603Z,1.10
2018-07-02T11:49:17.814Z,1.40
2018-07-02T11:51:46.365Z,1.50
2018-07-02T11:54:21.076Z,1.27
2018-07-02T11:56:49.413Z,1.23
2018-07-02T11:59:23.222Z,1.30
2018-07-02T12:01:53.120Z,1.40
2018-07-02T12:04:22.371Z,1.33
2018-07-02T12:06:52.299Z,1.20
2018-07-02T12:09:21.927Z,1.03
2018-07-02T12:11:50.210Z,1.70
2018-07-02T12:14:18.534Z,1.10
2018-07-02T12:16:47.683Z,1.30
2018-07-02T12:19:16.332Z,1.30
2018-07-02T12:21:44.662Z,1.30
2018-07-02T12:24:13.094Z,1.10
2018-07-02T12:26:41.537Z,1.50
2018-07-02T12:29:10.238Z,1.30
2018-07-02T12:31:38.253Z,1.30
2018-07-02T12:34:06.638Z,1.20
2018-07-02T12:36:36.357Z,1.23
2018-07-02T12:39:09.005Z,1.20
2018-07-02T12:41:38.318Z,1.17
2018-07-02T12:44:06.789Z,1.50
2018-07-02T12:46:45.607Z,1.20
2018-07-02T12:49:14.330Z,1.27
2018-07-02T12:51:42.835Z,1.20
2018-07-02T12:54:14.758Z,1.30
2018-07-02T12:56:42.978Z,1.23
2018-07-02T12:59:12.538Z,1.40
2018-07-02T13:01:41.714Z,1.50
2018-07-02T13:04:10.009Z,1.03
2018-07-02T13:06:40.221Z,1.10
2018-07-02T13:09:11.440Z,1.30
2018-07-02T13:11:39.867Z,1.20
2018-07-02T13:14:09.875Z,1.40
2018-07-02T13:16:41.812Z,1.30
2018-07-02T13:19:10.664Z,1.20
2018-07-02T13:21:39.559Z,1.10
2018-07-02T13:24:07.956Z,1.20
2018-07-02T13:26:47.802Z,1.30
2018-07-02T13:29:16.047Z,1.30
2018-07-02T13:31:45.389Z,1.40
2018-07-02T13:34:13.723Z,1.40
2018-07-02T13:36:42.754Z,1.50
2018-07-02T13:39:13.109Z,1.27
2018-07-02T13:41:41.766Z,1.20
2018-07-02T13:44:11.250Z,1.40
2018-07-02T13:46:39.781Z,1.20
2018-07-02T13:49:08.305Z,1.30
2018-07-02T13:51:37.010Z,1.20
2018-07-02T13:54:07.975Z,1.33
2018-07-02T13:56:36.721Z,1.27
2018-07-02T13:59:05.038Z,1.50
2018-07-02T14:01:34.402Z,1.40
2018-07-02T14:04:03.610Z,1.17
2018-07-02T14:06:32.147Z,1.17
2018-07-02T14:09:02.114Z,1.17
2018-07-02T14:11:31.691Z,1.27
2018-07-02T14:14:00.397Z,1.40
2018-07-02T14:16:29.203Z,1.27
2018-07-02T14:18:57.510Z,1.27
2018-07-02T14:21:25.754Z,1.20
2018-07-02T14:23:54.028Z,1.40
2018-07-02T14:26:30.735Z,1.17
2018-07-02T14:28:59.163Z,1.27
2018-07-02T14:31:28.967Z,1.17
2018-07-02T14:33:57.969Z,1.40
2018-07-02T14:36:26.541Z,1.40
2018-07-02T14:38:54.859Z,1.23
2018-07-02T14:41:23.234Z,1.27
2018-07-02T14:43:51.822Z,1.23
2018-07-02T14:46:20.104Z,1.10
2018-07-02T14:48:48.821Z,1.40
2018-07-02T14:51:17.294Z,1.30
2018-07-02T14:53:46.138Z,1.37
2018-07-02T14:56:14.443Z,1.20
2018-07-02T14:58:43.626Z,1.20
2018-07-02T15:01:12.054Z,1.13
2018-07-02T15:03:40.346Z,1.20
2018-07-02T15:06:09.034Z,1.40
2018-07-02T15:08:37.686Z,1.00
2018-07-02T15:11:08.573Z,1.40
2018-07-02T15:13:37.516Z,1.30
2018-07-02T15:16:06.071Z,1.30
2018-07-02T15:18:34.681Z,1.20
2018-07-02T15:21:03.046Z,1.40
2018-07-02T15:23:32.343Z,1.20
2018-07-02T15:26:01.603Z,1.30
2018-07-02T15:28:30.435Z,1.37
2018-07-02T15:30:58.834Z,1.20
2018-07-02T15:33:27.166Z,1.10
2018-07-02T15:35:55.579Z,1.10
2018-07-02T15:38:23.957Z,1.70
2018-07-02T15:40:52.958Z,1.40
2018-07-02T15:43:21.518Z,1.30
2018-07-02T15:45:49.946Z,1.10
2018-07-02T15:48:18.312Z,1.30
2018-07-02T15:50:46.710Z,1.30
2018-07-02T15:53:17.131Z,1.67
2018-07-02T15:55:55.754Z,1.43
2018-07-02T15:58:24.000Z,1.00
2018-07-02T16:00:52.470Z,1.50
2018-07-02T16:03:21.353Z,1.53
2018-07-02T16:05:50.240Z,1.10
2018-07-02T16:08:18.999Z,1.40
2018-07-02T16:10:47.550Z,1.30
2018-07-02T16:13:15.887Z,1.40
2018-07-02T16:15:44.174Z,1.27
2018-07-02T16:18:12.697Z,1.40
2018-07-02T16:20:42.270Z,1.20
2018-07-02T16:23:11.363Z,1.60
2018-07-02T16:25:39.885Z,1.40
2018-07-02T16:28:09.282Z,1.30
2018-07-02T16:30:37.774Z,1.57
2018-07-02T16:33:06.202Z,1.10
2018-07-02T16:35:35.295Z,1.23
2018-07-02T16:38:03.782Z,1.30
2018-07-02T16:40:32.202Z,1.27
2018-07-02T16:43:00.612Z,1.43
2018-07-02T16:45:29.539Z,1.33
2018-07-02T16:47:57.865Z,1.53
2018-07-02T16:50:27.746Z,1.53
2018-07-02T16:52:56.458Z,1.50
2018-07-02T16:55:24.760Z,1.40
2018-07-02T16:57:54.166Z,1.40
2018-07-02T17:00:22.691Z,1.30
2018-07-02T17:02:51.378Z,1.40
2018-07-02T17:05:19.866Z,1.37
2018-07-02T17:07:55.203Z,1.47
2018-07-02T17:10:23.726Z,1.43
2018-07-02T17:12:52.614Z,1.13
2018-07-02T17:15:21.938Z,1.40
2018-07-02T17:17:50.512Z,1.73
2018-07-02T17:20:19.670Z,1.33
2018-07-02T17:22:47.953Z,1.50
2018-07-02T17:25:17.088Z,1.50
2018-07-02T17:27:45.354Z,1.23
2018-07-02T17:30:13.670Z,1.43
2018-07-02T17:32:42.141Z,1.30
2018-07-02T17:35:10.047Z,1.60
2018-07-02T17:37:38.376Z,1.43
2018-07-02T17:40:07.625Z,1.30
2018-07-02T17:42:37.058Z,1.30
2018-07-02T17:45:05.826Z,1.50
2018-07-02T17:47:34.210Z,1.40
2018-07-02T17:50:02.477Z,1.50
2018-07-02T17:52:30.808Z,1.40
2018-07-02T17:54:59.098Z,1.40
2018-07-02T17:57:27.360Z,1.30
2018-07-02T17:59:55.647Z,1.43
2018-07-02T18:02:24.733Z,1.33
2018-07-02T18:04:53.510Z,1.30
2018-07-02T18:07:21.778Z,1.20
2018-07-02T18:09:50.570Z,1.43
2018-07-02T18:12:18.884Z,1.63
2018-07-02T18:14:47.225Z,1.30
2018-07-02T18:17:15.485Z,1.27
2018-07-02T18:19:43.766Z,1.60
2018-07-02T18:22:13.687Z,1.50
2018-07-02T18:24:43.891Z,1.30
2018-07-02T18:27:12.271Z,1.30
2018-07-02T18:29:40.792Z,1.60
2018-07-02T18:32:09.878Z,1.80
2018-07-02T18:34:38.676Z,1.33
2018-07-02T18:37:07.073Z,1.50
2018-07-02T18:39:36.350Z,1.63
2018-07-02T18:42:05.375Z,1.47
2018-07-02T18:44:33.748Z,1.30
2018-07-02T18:47:02.202Z,1.40
2018-07-02T18:49:32.696Z,1.40
2018-07-02T18:52:01.184Z,1.60
2018-07-02T18:54:29.490Z,1.50
2018-07-02T18:56:57.822Z,1.37
2018-07-02T18:59:26.193Z,1.63
2018-07-02T19:01:55.005Z,1.70
2018-07-02T19:04:23.300Z,1.40
2018-07-02T19:06:51.665Z,1.20
2018-07-02T19:09:19.981Z,1.60
2018-07-02T19:11:48.302Z,1.50
2018-07-02T19:14:17.103Z,1.50
2018-07-02T19:16:45.509Z,1.33
2018-07-02T19:19:13.743Z,1.50
2018-07-02T19:21:42.845Z,1.20
2018-07-02T19:24:11.460Z,1.93
2018-07-02T19:26:40.541Z,1.57
2018-07-02T19:29:08.846Z,1.50
2018-07-02T19:31:38.161Z,1.50
2018-07-02T19:34:06.460Z,1.53
2018-07-02T19:36:35.031Z,1.53
2018-07-02T19:39:03.541Z,1.70
2018-07-02T19:41:32.923Z,1.80
2018-07-02T19:44:01.663Z,1.70
2018-07-02T19:46:30.213Z,1.70
2018-07-02T19:48:58.494Z,1.90
2018-07-02T19:51:27.110Z,1.70
2018-07-02T19:53:55.923Z,1.70
2018-07-02T19:56:24.721Z,1.87
2018-07-02T19:58:53.199Z,1.70
2018-07-02T20:01:22.466Z,3.53
2018-07-02T20:03:51.919Z,2.77
2018-07-02T20:06:20.999Z,1.90
2018-07-02T20:08:49.720Z,1.70
2018-07-02T20:11:18.034Z,1.80
2018-07-02T20:13:46.854Z,1.90
2018-07-02T20:16:15.435Z,1.53
2018-07-02T20:18:43.839Z,1.67
2018-07-02T20:21:12.291Z,1.57
2018-07-02T20:23:41.113Z,1.60
2018-07-02T20:26:09.498Z,2.00
2018-07-02T20:28:39.077Z,1.97
2018-07-02T20:31:17.976Z,1.53
2018-07-02T20:33:46.651Z,1.90
2018-07-02T20:36:15.655Z,1.73
2018-07-02T20:38:44.551Z,1.50
2018-07-02T20:41:17.495Z,1.53
2018-07-02T20:43:46.469Z,1.83
2018-07-02T20:46:15.866Z,1.67
2018-07-02T20:48:45.773Z,1.73
2018-07-02T20:51:14.879Z,1.80
2018-07-02T20:53:44.895Z,1.77
2018-07-02T20:56:13.961Z,1.60
2018-07-02T20:58:42.588Z,1.53
2018-07-02T21:01:18.236Z,1.60
2018-07-02T21:03:51.311Z,1.77
2018-07-02T21:06:23.363Z,1.90
2018-07-02T21:08:55.149Z,1.67
2018-07-02T21:11:27.978Z,1.70
2018-07-02T21:13:57.215Z,1.50
2018-07-02T21:16:25.761Z,1.63
2018-07-02T21:18:54.080Z,1.60
2018-07-02T21:21:22.676Z,1.70
2018-07-02T21:23:51.800Z,1.43
2018-07-02T21:26:22.659Z,1.80
2018-07-02T21:28:51.363Z,1.80
2018-07-02T21:31:20.719Z,1.70
2018-07-02T21:33:49.864Z,1.63
2018-07-02T21:36:18.227Z,1.70
2018-07-02T21:38:48.493Z,1.73
2018-07-02T21:41:16.916Z,1.87
2018-07-02T21:43:45.221Z,1.60
2018-07-02T21:46:14.761Z,1.70
2018-07-02T21:48:44.671Z,2.00
2018-07-02T21:51:14.042Z,1.30
2018-07-02T21:53:43.371Z,1.60
2018-07-02T21:56:12.614Z,1.50
2018-07-02T21:58:42.009Z,1.80
2018-07-02T22:01:25.534Z,1.57
2018-07-02T22:03:55.058Z,1.80
2018-07-02T22:06:23.434Z,2.27
2018-07-02T22:08:51.738Z,1.70
2018-07-02T22:11:20.052Z,1.80
2018-07-02T22:13:48.381Z,1.50
2018-07-02T22:16:16.665Z,1.70
2018-07-02T22:18:46.345Z,1.70
2018-07-02T22:21:16.814Z,1.40
2018-07-02T22:23:45.569Z,1.83
2018-07-02T22:26:14.930Z,1.70
2018-07-02T22:28:45.322Z,1.90
2018-07-02T22:31:17.373Z,1.73
2018-07-02T22:33:46.271Z,1.50
2018-07-02T22:36:14.806Z,1.57
2018-07-02T22:38:44.941Z,2.00
2018-07-02T22:41:15.522Z,1.60
2018-07-02T22:43:44.607Z,1.60
2018-07-02T22:46:20.948Z,1.73
2018-07-02T22:48:50.052Z,2.07
2018-07-02T22:51:19.999Z,1.50
2018-07-02T22:53:51.752Z,1.73
2018-07-02T22:56:22.910Z,1.70
2018-07-02T22:58:57.526Z,1.50
2018-07-02T23:01:30.522Z,1.57
2018-07-02T23:04:03.596Z,1.37
2018-07-02T23:06:38.300Z,1.40
2018-07-02T23:09:09.776Z,1.60
2018-07-02T23:11:39.379Z,1.27
2018-07-02T23:14:09.814Z,1.87
2018-07-02T23:16:39.008Z,1.60
2018-07-02T23:19:08.286Z,1.30
2018-07-02T23:21:37.739Z,1.90
2018-07-02T23:24:06.444Z,1.70
2018-07-02T23:26:35.591Z,1.40
2018-07-02T23:29:07.095Z,1.70
2018-07-02T23:31:37.667Z,1.40
2018-07-02T23:34:06.842Z,1.60
2018-07-02T23:36:36.293Z,1.60
2018-07-02T23:39:09.460Z,1.50
2018-07-02T23:41:38.192Z,1.50
2018-07-02T23:44:06.971Z,1.40
2018-07-02T23:46:36.263Z,1.50
2018-07-02T23:49:06.222Z,1.50
2018-07-02T23:51:35.137Z,1.47
2018-07-02T23:54:05.207Z,1.20
2018-07-02T23:56:35.370Z,1.43
2018-07-02T23:59:06.207Z,1.40
